TimeCST,TemperatureF,Dew PointF,Humidity,Sea Level PressureIn,VisibilityMPH,Wind Direction,Wind SpeedMPH,Gust SpeedMPH,PrecipitationIn,Events,Conditions,WindDirDegrees,DateUTC
12:15 AM,23.9,15.8,71,30.22,10.0,West,9.2,-,N/A,,Overcast,280,2012-11-13 06:15:00
12:35 AM,23.9,15.8,71,30.23,10.0,WSW,8.1,-,N/A,,Overcast,250,2012-11-13 06:35:00
12:55 AM,23.7,15.8,72,30.23,10.0,West,10.4,16.1,N/A,,Overcast,260,2012-11-13 06:55:00
1:15 AM,23.7,16.2,73,30.24,10.0,West,10.4,-,N/A,,Overcast,260,2012-11-13 07:15:00
1:35 AM,23.7,16.3,73,30.25,10.0,West,8.1,-,N/A,,Overcast,270,2012-11-13 07:35:00
1:55 AM,23.7,16.5,74,30.25,10.0,WSW,8.1,-,N/A,,Overcast,240,2012-11-13 07:55:00
2:15 AM,23.7,16.5,74,30.26,10.0,West,9.2,-,N/A,,Overcast,270,2012-11-13 08:15:00
2:35 AM,23.4,16.5,75,30.26,10.0,WSW,10.4,-,N/A,,Overcast,250,2012-11-13 08:35:00
2:55 AM,23.0,16.2,75,30.27,10.0,WSW,11.5,-,N/A,,Overcast,250,2012-11-13 08:55:00
3:15 AM,22.8,16.3,76,30.28,10.0,West,9.2,-,N/A,,Overcast,260,2012-11-13 09:15:00
3:35 AM,22.6,15.8,75,30.27,10.0,WSW,10.4,-,N/A,,Overcast,240,2012-11-13 09:35:00
3:55 AM,22.6,16.0,76,30.28,10.0,WSW,5.8,-,N/A,,Overcast,250,2012-11-13 09:55:00
4:15 AM,22.3,15.8,76,30.29,10.0,WSW,8.1,-,N/A,,Overcast,240,2012-11-13 10:15:00
4:35 AM,22.1,15.8,77,30.29,10.0,WSW,9.2,-,N/A,,Overcast,240,2012-11-13 10:35:00
4:55 AM,22.1,16.0,77,30.30,10.0,WSW,10.4,-,N/A,,Overcast,240,2012-11-13 10:55:00
5:15 AM,22.1,16.2,78,30.31,10.0,WSW,8.1,-,N/A,,Overcast,250,2012-11-13 11:15:00
5:35 AM,22.1,16.5,79,30.30,10.0,West,8.1,-,N/A,,Overcast,260,2012-11-13 11:35:00
5:55 AM,21.9,16.7,80,30.30,10.0,WSW,5.8,-,N/A,,Overcast,250,2012-11-13 11:55:00
6:15 AM,21.7,16.7,81,30.30,10.0,WSW,4.6,-,N/A,,Overcast,240,2012-11-13 12:15:00
6:35 AM,21.0,16.5,83,30.30,10.0,WSW,3.5,-,N/A,,Overcast,240,2012-11-13 12:35:00
6:55 AM,19.4,15.8,86,30.31,10.0,SW,3.5,-,N/A,,Mostly Cloudy,220,2012-11-13 12:55:00
7:15 AM,20.1,16.5,86,30.31,10.0,Calm,Calm,-,N/A,,Mostly Cloudy,0,2012-11-13 13:15:00
7:35 AM,21.7,17.8,85,30.32,10.0,SSW,4.6,-,N/A,,Overcast,210,2012-11-13 13:35:00
7:55 AM,22.1,17.6,83,30.32,10.0,SW,6.9,-,N/A,,Overcast,220,2012-11-13 13:55:00
8:15 AM,22.6,17.2,80,30.33,10.0,SW,9.2,-,N/A,,Mostly Cloudy,230,2012-11-13 14:15:00
8:35 AM,22.8,16.9,78,30.33,10.0,SSW,8.1,-,N/A,,Clear,210,2012-11-13 14:35:00
8:55 AM,23.7,16.9,75,30.33,10.0,SW,8.1,-,N/A,,Clear,220,2012-11-13 14:55:00
9:15 AM,24.6,17.2,74,30.34,10.0,SW,8.1,-,N/A,,Clear,220,2012-11-13 15:15:00
9:35 AM,25.5,16.9,70,30.34,10.0,WSW,9.2,-,N/A,,Clear,240,2012-11-13 15:35:00
9:55 AM,26.2,17.4,69,30.34,10.0,WSW,8.1,-,N/A,,Clear,240,2012-11-13 15:55:00
10:15 AM,27.7,16.7,63,30.33,10.0,WSW,9.2,-,N/A,,Clear,240,2012-11-13 16:15:00
10:35 AM,28.4,16.5,61,30.33,10.0,SW,8.1,-,N/A,,Clear,220,2012-11-13 16:35:00
10:55 AM,30.0,16.5,57,30.32,10.0,SW,8.1,-,N/A,,Clear,220,2012-11-13 16:55:00
11:15 AM,30.9,15.8,54,30.32,10.0,SW,10.4,-,N/A,,Clear,230,2012-11-13 17:15:00
11:35 AM,31.8,16.0,52,30.31,10.0,SW,9.2,-,N/A,,Clear,230,2012-11-13 17:35:00
11:55 AM,32.5,16.0,51,30.30,10.0,SW,9.2,-,N/A,,Clear,220,2012-11-13 17:55:00
12:15 PM,34.0,16.5,49,30.29,10.0,SW,8.1,-,N/A,,Clear,230,2012-11-13 18:15:00
12:35 PM,34.7,16.2,47,30.29,10.0,WSW,10.4,-,N/A,,Clear,240,2012-11-13 18:35:00
12:55 PM,35.6,16.7,46,30.28,10.0,SW,10.4,-,N/A,,Clear,230,2012-11-13 18:55:00
1:15 PM,36.0,17.1,46,30.28,10.0,SW,11.5,-,N/A,,Clear,230,2012-11-13 19:15:00
1:35 PM,36.3,17.6,47,30.28,10.0,SW,11.5,16.1,N/A,,Clear,230,2012-11-13 19:35:00
1:55 PM,36.7,18.1,47,30.27,10.0,SW,10.4,-,N/A,,Clear,220,2012-11-13 19:55:00
2:15 PM,36.1,17.6,47,30.26,10.0,SW,6.9,10.4,N/A,,Clear,230,2012-11-13 20:15:00
2:35 PM,35.8,18.3,49,30.26,10.0,WSW,5.8,-,N/A,,Clear,250,2012-11-13 20:35:00
2:55 PM,36.5,18.5,48,30.26,10.0,SW,4.6,-,N/A,,Clear,230,2012-11-13 20:55:00
3:15 PM,36.5,18.9,49,30.27,10.0,WSW,9.2,-,N/A,,Clear,250,2012-11-13 21:15:00
3:35 PM,36.0,19.2,51,30.27,10.0,SW,8.1,-,N/A,,Clear,220,2012-11-13 21:35:00
3:55 PM,35.6,19.2,51,30.27,10.0,SW,5.8,-,N/A,,Clear,230,2012-11-13 21:55:00
4:15 PM,34.9,19.8,54,30.27,10.0,SSW,4.6,-,N/A,,Clear,210,2012-11-13 22:15:00
4:35 PM,34.5,19.6,54,30.28,10.0,SSW,5.8,-,N/A,,Clear,200,2012-11-13 22:35:00
4:55 PM,33.6,19.8,57,30.28,10.0,SSW,5.8,-,N/A,,Clear,210,2012-11-13 22:55:00
5:15 PM,32.0,19.2,59,30.28,10.0,SSW,4.6,-,N/A,,Clear,210,2012-11-13 23:15:00
5:35 PM,32.0,19.8,61,30.28,10.0,SSW,3.5,-,N/A,,Clear,200,2012-11-13 23:35:00
5:55 PM,31.8,19.8,61,30.29,10.0,South,3.5,-,N/A,,Scattered Clouds,180,2012-11-13 23:55:00
6:15 PM,30.7,19.9,64,30.29,10.0,South,3.5,-,N/A,,Scattered Clouds,170,2012-11-14 00:15:00
6:35 PM,31.3,19.6,62,30.29,10.0,SSE,3.5,-,N/A,,Scattered Clouds,160,2012-11-14 00:35:00
6:55 PM,28.9,19.9,69,30.29,10.0,Calm,Calm,-,N/A,,Clear,0,2012-11-14 00:55:00
7:15 PM,29.7,20.5,69,30.28,10.0,Calm,Calm,-,N/A,,Mostly Cloudy,0,2012-11-14 01:15:00
7:35 PM,28.9,21.0,72,30.28,10.0,Calm,Calm,-,N/A,,Mostly Cloudy,0,2012-11-14 01:35:00
7:55 PM,29.3,20.8,71,30.28,10.0,Calm,Calm,-,N/A,,Mostly Cloudy,0,2012-11-14 01:55:00
8:15 PM,28.0,21.7,77,30.28,10.0,Calm,Calm,-,N/A,,Overcast,0,2012-11-14 02:15:00
8:35 PM,28.6,21.4,74,30.29,10.0,Calm,Calm,-,N/A,,Overcast,0,2012-11-14 02:35:00
8:55 PM,28.8,21.4,74,30.29,10.0,Calm,Calm,-,N/A,,Mostly Cloudy,0,2012-11-14 02:55:00
9:15 PM,28.8,21.7,75,30.29,10.0,Calm,Calm,-,N/A,,Overcast,0,2012-11-14 03:15:00
9:35 PM,27.9,22.6,81,30.29,10.0,Calm,Calm,-,N/A,,Overcast,0,2012-11-14 03:35:00
9:55 PM,28.0,23.0,81,30.29,10.0,Calm,Calm,-,N/A,,Scattered Clouds,0,2012-11-14 03:55:00
10:15 PM,28.4,22.6,79,30.29,10.0,Calm,Calm,-,N/A,,Scattered Clouds,0,2012-11-14 04:15:00
10:35 PM,27.5,22.5,81,30.28,10.0,Calm,Calm,-,N/A,,Clear,0,2012-11-14 04:35:00
10:55 PM,27.7,22.6,81,30.28,10.0,Calm,Calm,-,N/A,,Scattered Clouds,0,2012-11-14 04:55:00
11:15 PM,27.3,23.0,84,30.28,10.0,Calm,Calm,-,N/A,,Scattered Clouds,0,2012-11-14 05:15:00
11:35 PM,27.7,22.5,81,30.27,10.0,Calm,Calm,-,N/A,,Scattered Clouds,0,2012-11-14 05:35:00
11:55 PM,26.4,22.5,85,30.27,10.0,Calm,Calm,-,N/A,,Overcast,0,2012-11-14 05:55:00